sensor_id;sensor_type;location;lat;lon;timestamp;temperature;humidity
9125;DHT22;4597;48.730;9.114;2022-10-18T00:01:29;14.20;99.90
9125;DHT22;4597;48.730;9.114;2022-10-18T00:03:55;14.20;99.90
9125;DHT22;4597;48.730;9.114;2022-10-18T00:06:20;14.20;99.90
9125;DHT22;4597;48.730;9.114;2022-10-18T00:08:46;14.10;99.90
9125;DHT22;4597;48.730;9.114;2022-10-18T00:11:11;14.10;99.90
9125;DHT22;4597;48.730;9.114;2022-10-18T00:13:37;14.10;99.90
9125;DHT22;4597;48.730;9.114;2022-10-18T00:16:07;14.10;99.90
9125;DHT22;4597;48.730;9.114;2022-10-18T00:18:34;14.10;99.90
9125;DHT22;4597;48.730;9.114;2022-10-18T00:21:02;14.00;99.90
9125;DHT22;4597;48.730;9.114;2022-10-18T00:23:29;14.00;99.90
9125;DHT22;4597;48.730;9.114;2022-10-18T00:26:04;14.00;99.90
9125;DHT22;4597;48.730;9.114;2022-10-18T00:28:31;14.10;99.90
9125;DHT22;4597;48.730;9.114;2022-10-18T00:30:57;14.10;99.90
9125;DHT22;4597;48.730;9.114;2022-10-18T00:33:22;14.10;99.90
9125;DHT22;4597;48.730;9.114;2022-10-18T00:35:48;14.10;99.90
9125;DHT22;4597;48.730;9.114;2022-10-18T00:38:13;14.10;99.90
9125;DHT22;4597;48.730;9.114;2022-10-18T00:40:39;14.20;99.90
9125;DHT22;4597;48.730;9.114;2022-10-18T00:43:05;14.20;99.90
9125;DHT22;4597;48.730;9.114;2022-10-18T00:45:30;14.20;99.90
9125;DHT22;4597;48.730;9.114;2022-10-18T00:47:59;14.20;99.90
9125;DHT22;4597;48.730;9.114;2022-10-18T00:50:28;14.20;99.90
9125;DHT22;4597;48.730;9.114;2022-10-18T00:52:57;14.20;99.90
9125;DHT22;4597;48.730;9.114;2022-10-18T00:55:25;14.20;99.90
9125;DHT22;4597;48.730;9.114;2022-10-18T00:57:51;14.30;99.90
9125;DHT22;4597;48.730;9.114;2022-10-18T01:00:18;14.30;99.90
9125;DHT22;4597;48.730;9.114;2022-10-18T01:02:45;14.30;99.90
9125;DHT22;4597;48.730;9.114;2022-10-18T01:05:13;14.30;99.90
9125;DHT22;4597;48.730;9.114;2022-10-18T01:10:33;14.40;99.90
9125;DHT22;4597;48.730;9.114;2022-10-18T01:14:03;14.40;99.90
9125;DHT22;4597;48.730;9.114;2022-10-18T01:16:26;14.50;99.90
9125;DHT22;4597;48.730;9.114;2022-10-18T01:24:36;14.40;99.90
9125;DHT22;4597;48.730;9.114;2022-10-18T01:30:26;14.40;99.90
9125;DHT22;4597;48.730;9.114;2022-10-18T01:33:14;14.40;99.90
9125;DHT22;4597;48.730;9.114;2022-10-18T01:35:50;14.40;99.90
9125;DHT22;4597;48.730;9.114;2022-10-18T01:38:18;14.40;99.90
9125;DHT22;4597;48.730;9.114;2022-10-18T01:40:47;14.40;99.90
9125;DHT22;4597;48.730;9.114;2022-10-18T01:43:14;14.40;99.90
9125;DHT22;4597;48.730;9.114;2022-10-18T01:45:40;14.40;99.90
9125;DHT22;4597;48.730;9.114;2022-10-18T01:48:06;14.50;99.90
9125;DHT22;4597;48.730;9.114;2022-10-18T01:50:34;14.50;99.90
9125;DHT22;4597;48.730;9.114;2022-10-18T01:53:00;14.40;99.90
9125;DHT22;4597;48.730;9.114;2022-10-18T01:55:43;14.40;99.90
9125;DHT22;4597;48.730;9.114;2022-10-18T01:58:17;14.50;99.90
9125;DHT22;4597;48.730;9.114;2022-10-18T02:00:47;14.40;99.90
9125;DHT22;4597;48.730;9.114;2022-10-18T02:03:22;14.50;99.90
9125;DHT22;4597;48.730;9.114;2022-10-18T02:08:43;14.50;99.90
9125;DHT22;4597;48.730;9.114;2022-10-18T02:11:16;14.50;99.90
9125;DHT22;4597;48.730;9.114;2022-10-18T02:13:47;14.50;99.90
9125;DHT22;4597;48.730;9.114;2022-10-18T02:16:17;14.50;99.90
9125;DHT22;4597;48.730;9.114;2022-10-18T02:18:56;14.50;99.90
9125;DHT22;4597;48.730;9.114;2022-10-18T02:21:24;14.50;99.90
9125;DHT22;4597;48.730;9.114;2022-10-18T02:23:51;14.60;99.90
9125;DHT22;4597;48.730;9.114;2022-10-18T02:26:17;14.60;99.90
9125;DHT22;4597;48.730;9.114;2022-10-18T02:28:44;14.60;99.90
9125;DHT22;4597;48.730;9.114;2022-10-18T02:31:26;14.60;99.90
9125;DHT22;4597;48.730;9.114;2022-10-18T02:33:56;14.60;99.90
9125;DHT22;4597;48.730;9.114;2022-10-18T02:36:56;14.60;99.90
9125;DHT22;4597;48.730;9.114;2022-10-18T02:39:36;14.70;99.90
9125;DHT22;4597;48.730;9.114;2022-10-18T02:42:05;14.70;99.90
9125;DHT22;4597;48.730;9.114;2022-10-18T02:44:32;14.60;99.90
9125;DHT22;4597;48.730;9.114;2022-10-18T02:46:58;14.60;99.90
9125;DHT22;4597;48.730;9.114;2022-10-18T02:49:23;14.60;99.90
9125;DHT22;4597;48.730;9.114;2022-10-18T02:51:49;14.60;99.90
9125;DHT22;4597;48.730;9.114;2022-10-18T02:54:14;14.60;99.90
9125;DHT22;4597;48.730;9.114;2022-10-18T02:56:40;14.50;99.90
9125;DHT22;4597;48.730;9.114;2022-10-18T02:59:05;14.50;99.90
9125;DHT22;4597;48.730;9.114;2022-10-18T03:01:33;14.40;99.90
9125;DHT22;4597;48.730;9.114;2022-10-18T03:03:58;14.40;99.90
9125;DHT22;4597;48.730;9.114;2022-10-18T03:06:24;14.30;99.90
9125;DHT22;4597;48.730;9.114;2022-10-18T03:08:49;14.30;99.90
9125;DHT22;4597;48.730;9.114;2022-10-18T03:11:15;14.30;99.90
9125;DHT22;4597;48.730;9.114;2022-10-18T03:13:40;14.20;99.90
9125;DHT22;4597;48.730;9.114;2022-10-18T03:16:06;14.20;99.90
9125;DHT22;4597;48.730;9.114;2022-10-18T03:18:32;14.20;99.90
9125;DHT22;4597;48.730;9.114;2022-10-18T03:20:57;14.20;99.90
9125;DHT22;4597;48.730;9.114;2022-10-18T03:23:23;14.20;99.90
9125;DHT22;4597;48.730;9.114;2022-10-18T03:25:48;14.20;99.90
9125;DHT22;4597;48.730;9.114;2022-10-18T03:28:14;14.20;99.90
9125;DHT22;4597;48.730;9.114;2022-10-18T03:30:39;14.20;99.90
9125;DHT22;4597;48.730;9.114;2022-10-18T03:33:05;14.20;99.90
9125;DHT22;4597;48.730;9.114;2022-10-18T03:35:31;14.10;99.90
9125;DHT22;4597;48.730;9.114;2022-10-18T03:37:56;14.10;99.90
9125;DHT22;4597;48.730;9.114;2022-10-18T03:40:22;14.00;99.90
9125;DHT22;4597;48.730;9.114;2022-10-18T03:42:48;14.00;99.90
9125;DHT22;4597;48.730;9.114;2022-10-18T03:45:13;14.00;99.90
9125;DHT22;4597;48.730;9.114;2022-10-18T03:47:39;13.90;99.90
9125;DHT22;4597;48.730;9.114;2022-10-18T03:50:04;13.90;99.90
9125;DHT22;4597;48.730;9.114;2022-10-18T03:52:30;13.90;99.90
9125;DHT22;4597;48.730;9.114;2022-10-18T03:54:56;13.90;99.90
9125;DHT22;4597;48.730;9.114;2022-10-18T03:57:21;13.90;99.90
9125;DHT22;4597;48.730;9.114;2022-10-18T03:59:46;13.90;99.90
9125;DHT22;4597;48.730;9.114;2022-10-18T04:02:13;14.00;99.90
9125;DHT22;4597;48.730;9.114;2022-10-18T04:04:38;14.00;99.90
9125;DHT22;4597;48.730;9.114;2022-10-18T04:07:04;14.10;99.90
9125;DHT22;4597;48.730;9.114;2022-10-18T04:09:30;14.10;99.90
9125;DHT22;4597;48.730;9.114;2022-10-18T04:11:55;14.10;99.90
9125;DHT22;4597;48.730;9.114;2022-10-18T04:14:21;14.10;99.90
9125;DHT22;4597;48.730;9.114;2022-10-18T04:16:46;14.10;99.90
9125;DHT22;4597;48.730;9.114;2022-10-18T04:19:12;14.00;99.90
9125;DHT22;4597;48.730;9.114;2022-10-18T04:21:38;14.00;99.90
9125;DHT22;4597;48.730;9.114;2022-10-18T04:24:04;14.00;99.90
9125;DHT22;4597;48.730;9.114;2022-10-18T04:26:30;14.00;99.90
9125;DHT22;4597;48.730;9.114;2022-10-18T04:28:55;14.10;99.90
9125;DHT22;4597;48.730;9.114;2022-10-18T04:31:21;14.10;99.90
9125;DHT22;4597;48.730;9.114;2022-10-18T04:33:46;14.10;99.90
9125;DHT22;4597;48.730;9.114;2022-10-18T04:36:12;14.20;99.90
9125;DHT22;4597;48.730;9.114;2022-10-18T04:38:37;14.20;99.90
9125;DHT22;4597;48.730;9.114;2022-10-18T04:41:03;14.20;99.90
9125;DHT22;4597;48.730;9.114;2022-10-18T04:43:29;14.30;99.90
9125;DHT22;4597;48.730;9.114;2022-10-18T04:45:54;14.30;99.90
9125;DHT22;4597;48.730;9.114;2022-10-18T04:48:20;14.20;99.90
9125;DHT22;4597;48.730;9.114;2022-10-18T04:50:49;14.20;99.90
9125;DHT22;4597;48.730;9.114;2022-10-18T04:53:16;14.20;99.90
9125;DHT22;4597;48.730;9.114;2022-10-18T04:55:46;14.30;99.90
9125;DHT22;4597;48.730;9.114;2022-10-18T04:58:13;14.20;99.90
9125;DHT22;4597;48.730;9.114;2022-10-18T05:00:39;14.20;99.90
9125;DHT22;4597;48.730;9.114;2022-10-18T05:03:05;14.20;99.90
9125;DHT22;4597;48.730;9.114;2022-10-18T05:05:30;14.10;99.90
9125;DHT22;4597;48.730;9.114;2022-10-18T05:07:56;14.10;99.90
9125;DHT22;4597;48.730;9.114;2022-10-18T05:10:21;14.10;99.90
9125;DHT22;4597;48.730;9.114;2022-10-18T05:12:47;14.00;99.90
9125;DHT22;4597;48.730;9.114;2022-10-18T05:15:13;14.00;99.90
9125;DHT22;4597;48.730;9.114;2022-10-18T05:17:39;14.10;99.90
9125;DHT22;4597;48.730;9.114;2022-10-18T05:20:05;14.00;99.90
9125;DHT22;4597;48.730;9.114;2022-10-18T05:22:30;14.00;99.90
9125;DHT22;4597;48.730;9.114;2022-10-18T05:24:56;14.00;99.90
9125;DHT22;4597;48.730;9.114;2022-10-18T05:27:21;14.00;99.90
9125;DHT22;4597;48.730;9.114;2022-10-18T05:29:47;13.90;99.90
9125;DHT22;4597;48.730;9.114;2022-10-18T05:32:13;13.90;99.90
9125;DHT22;4597;48.730;9.114;2022-10-18T05:34:38;13.80;99.90
9125;DHT22;4597;48.730;9.114;2022-10-18T05:37:04;13.80;99.90
9125;DHT22;4597;48.730;9.114;2022-10-18T05:39:29;13.70;99.90
9125;DHT22;4597;48.730;9.114;2022-10-18T05:41:55;13.70;99.90
9125;DHT22;4597;48.730;9.114;2022-10-18T05:44:22;13.70;99.90
9125;DHT22;4597;48.730;9.114;2022-10-18T05:46:47;13.60;99.90
9125;DHT22;4597;48.730;9.114;2022-10-18T05:49:13;13.60;99.90
9125;DHT22;4597;48.730;9.114;2022-10-18T05:51:39;13.60;99.90
9125;DHT22;4597;48.730;9.114;2022-10-18T05:54:04;13.60;99.90
9125;DHT22;4597;48.730;9.114;2022-10-18T05:56:30;13.60;99.90
9125;DHT22;4597;48.730;9.114;2022-10-18T05:58:55;13.70;99.90
9125;DHT22;4597;48.730;9.114;2022-10-18T06:01:21;13.70;99.90
9125;DHT22;4597;48.730;9.114;2022-10-18T06:03:46;13.70;99.90
9125;DHT22;4597;48.730;9.114;2022-10-18T06:06:13;13.70;99.90
9125;DHT22;4597;48.730;9.114;2022-10-18T06:08:39;13.80;99.90
9125;DHT22;4597;48.730;9.114;2022-10-18T06:11:07;13.90;99.90
9125;DHT22;4597;48.730;9.114;2022-10-18T06:13:33;13.90;99.90
9125;DHT22;4597;48.730;9.114;2022-10-18T06:15:58;13.90;99.90
9125;DHT22;4597;48.730;9.114;2022-10-18T06:18:24;14.00;99.90
9125;DHT22;4597;48.730;9.114;2022-10-18T06:20:55;14.00;99.90
9125;DHT22;4597;48.730;9.114;2022-10-18T06:23:21;14.00;99.90
9125;DHT22;4597;48.730;9.114;2022-10-18T06:25:46;14.00;99.90
9125;DHT22;4597;48.730;9.114;2022-10-18T06:28:12;14.10;99.90
9125;DHT22;4597;48.730;9.114;2022-10-18T06:30:37;14.20;99.90
9125;DHT22;4597;48.730;9.114;2022-10-18T06:33:03;14.20;99.90
9125;DHT22;4597;48.730;9.114;2022-10-18T06:35:28;14.20;99.90
9125;DHT22;4597;48.730;9.114;2022-10-18T06:37:54;14.20;99.90
9125;DHT22;4597;48.730;9.114;2022-10-18T06:40:20;14.20;99.90
9125;DHT22;4597;48.730;9.114;2022-10-18T06:42:45;14.20;99.90
9125;DHT22;4597;48.730;9.114;2022-10-18T06:45:12;14.20;99.90
9125;DHT22;4597;48.730;9.114;2022-10-18T06:47:38;14.20;99.90
9125;DHT22;4597;48.730;9.114;2022-10-18T06:50:04;14.30;99.90
9125;DHT22;4597;48.730;9.114;2022-10-18T06:52:29;14.40;99.90
9125;DHT22;4597;48.730;9.114;2022-10-18T06:54:55;14.50;99.90
9125;DHT22;4597;48.730;9.114;2022-10-18T06:57:20;14.40;99.90
9125;DHT22;4597;48.730;9.114;2022-10-18T06:59:46;14.40;99.90
9125;DHT22;4597;48.730;9.114;2022-10-18T07:02:15;14.40;99.90
9125;DHT22;4597;48.730;9.114;2022-10-18T07:04:43;14.40;99.90
9125;DHT22;4597;48.730;9.114;2022-10-18T07:07:09;14.40;99.90
9125;DHT22;4597;48.730;9.114;2022-10-18T07:09:35;14.50;99.90
9125;DHT22;4597;48.730;9.114;2022-10-18T07:12:00;14.50;99.90
9125;DHT22;4597;48.730;9.114;2022-10-18T07:14:26;14.50;99.90
9125;DHT22;4597;48.730;9.114;2022-10-18T07:16:51;14.60;99.90
9125;DHT22;4597;48.730;9.114;2022-10-18T07:19:17;14.70;99.90
9125;DHT22;4597;48.730;9.114;2022-10-18T07:21:42;14.80;99.90
9125;DHT22;4597;48.730;9.114;2022-10-18T07:24:08;14.90;99.90
9125;DHT22;4597;48.730;9.114;2022-10-18T07:26:33;14.90;99.90
9125;DHT22;4597;48.730;9.114;2022-10-18T07:29:05;15.00;99.90
9125;DHT22;4597;48.730;9.114;2022-10-18T07:31:31;15.00;99.90
9125;DHT22;4597;48.730;9.114;2022-10-18T07:33:57;15.10;99.90
9125;DHT22;4597;48.730;9.114;2022-10-18T07:36:23;15.20;99.90
9125;DHT22;4597;48.730;9.114;2022-10-18T07:38:51;15.30;99.90
9125;DHT22;4597;48.730;9.114;2022-10-18T07:41:17;15.30;99.90
9125;DHT22;4597;48.730;9.114;2022-10-18T07:43:45;15.30;99.90
9125;DHT22;4597;48.730;9.114;2022-10-18T07:46:11;15.40;99.90
9125;DHT22;4597;48.730;9.114;2022-10-18T07:48:37;15.40;99.90
9125;DHT22;4597;48.730;9.114;2022-10-18T07:51:03;15.40;99.90
9125;DHT22;4597;48.730;9.114;2022-10-18T07:53:29;15.40;99.90
9125;DHT22;4597;48.730;9.114;2022-10-18T07:55:58;15.50;99.90
9125;DHT22;4597;48.730;9.114;2022-10-18T07:58:24;15.50;99.90
9125;DHT22;4597;48.730;9.114;2022-10-18T08:00:50;15.50;99.90
9125;DHT22;4597;48.730;9.114;2022-10-18T08:03:15;15.50;99.90
9125;DHT22;4597;48.730;9.114;2022-10-18T08:05:41;15.50;99.90
9125;DHT22;4597;48.730;9.114;2022-10-18T08:08:06;15.60;99.90
9125;DHT22;4597;48.730;9.114;2022-10-18T08:10:33;15.60;99.90
9125;DHT22;4597;48.730;9.114;2022-10-18T08:12:59;15.60;99.90
9125;DHT22;4597;48.730;9.114;2022-10-18T08:15:24;15.70;99.90
9125;DHT22;4597;48.730;9.114;2022-10-18T08:17:50;15.70;99.90
9125;DHT22;4597;48.730;9.114;2022-10-18T08:20:16;15.70;99.90
9125;DHT22;4597;48.730;9.114;2022-10-18T08:22:42;15.80;99.90
9125;DHT22;4597;48.730;9.114;2022-10-18T08:25:08;15.80;99.90
9125;DHT22;4597;48.730;9.114;2022-10-18T08:27:33;15.80;99.90
9125;DHT22;4597;48.730;9.114;2022-10-18T08:29:59;15.70;99.90
9125;DHT22;4597;48.730;9.114;2022-10-18T08:32:26;15.70;99.90
9125;DHT22;4597;48.730;9.114;2022-10-18T08:34:52;15.60;99.90
9125;DHT22;4597;48.730;9.114;2022-10-18T08:37:18;15.60;99.90
9125;DHT22;4597;48.730;9.114;2022-10-18T08:39:44;15.60;99.90
9125;DHT22;4597;48.730;9.114;2022-10-18T08:42:35;15.70;99.90
9125;DHT22;4597;48.730;9.114;2022-10-18T08:45:04;15.70;99.90
9125;DHT22;4597;48.730;9.114;2022-10-18T08:47:42;15.80;99.90
9125;DHT22;4597;48.730;9.114;2022-10-18T08:50:12;15.90;99.90
9125;DHT22;4597;48.730;9.114;2022-10-18T08:52:58;15.90;99.90
9125;DHT22;4597;48.730;9.114;2022-10-18T08:55:43;15.90;99.90
9125;DHT22;4597;48.730;9.114;2022-10-18T08:58:19;16.00;99.90
9125;DHT22;4597;48.730;9.114;2022-10-18T09:04:08;16.10;99.90
9125;DHT22;4597;48.730;9.114;2022-10-18T09:20:31;16.30;99.90
9125;DHT22;4597;48.730;9.114;2022-10-18T09:23:19;16.40;99.90
9125;DHT22;4597;48.730;9.114;2022-10-18T09:25:54;16.60;99.90
9125;DHT22;4597;48.730;9.114;2022-10-18T09:36:52;17.70;99.90
9125;DHT22;4597;48.730;9.114;2022-10-18T09:39:22;17.90;99.90
9125;DHT22;4597;48.730;9.114;2022-10-18T09:41:53;18.10;99.90
9125;DHT22;4597;48.730;9.114;2022-10-18T09:44:29;18.30;99.90
9125;DHT22;4597;48.730;9.114;2022-10-18T09:47:01;18.60;99.90
9125;DHT22;4597;48.730;9.114;2022-10-18T09:49:35;18.70;99.90
9125;DHT22;4597;48.730;9.114;2022-10-18T09:52:07;18.80;99.90
9125;DHT22;4597;48.730;9.114;2022-10-18T09:54:37;19.00;99.90
9125;DHT22;4597;48.730;9.114;2022-10-18T09:57:13;19.00;99.90
9125;DHT22;4597;48.730;9.114;2022-10-18T09:59:48;19.10;99.90
9125;DHT22;4597;48.730;9.114;2022-10-18T10:02:19;19.00;99.90
9125;DHT22;4597;48.730;9.114;2022-10-18T10:04:51;18.90;99.90
9125;DHT22;4597;48.730;9.114;2022-10-18T10:07:25;18.90;99.90
9125;DHT22;4597;48.730;9.114;2022-10-18T10:12:38;19.20;99.90
9125;DHT22;4597;48.730;9.114;2022-10-18T10:15:20;19.20;99.90
9125;DHT22;4597;48.730;9.114;2022-10-18T10:18:16;19.30;99.90
9125;DHT22;4597;48.730;9.114;2022-10-18T10:20:46;19.40;99.90
9125;DHT22;4597;48.730;9.114;2022-10-18T10:23:19;19.50;99.90
9125;DHT22;4597;48.730;9.114;2022-10-18T10:25:53;19.50;99.90
9125;DHT22;4597;48.730;9.114;2022-10-18T10:28:23;19.50;99.90
9125;DHT22;4597;48.730;9.114;2022-10-18T10:30:50;19.60;99.90
9125;DHT22;4597;48.730;9.114;2022-10-18T10:33:36;19.60;99.90
9125;DHT22;4597;48.730;9.114;2022-10-18T10:36:05;19.60;99.90
9125;DHT22;4597;48.730;9.114;2022-10-18T10:38:31;19.60;99.90
9125;DHT22;4597;48.730;9.114;2022-10-18T10:40:57;19.70;99.90
9125;DHT22;4597;48.730;9.114;2022-10-18T10:46:09;19.80;99.90
9125;DHT22;4597;48.730;9.114;2022-10-18T10:48:56;19.90;99.90
9125;DHT22;4597;48.730;9.114;2022-10-18T10:51:34;19.90;99.90
9125;DHT22;4597;48.730;9.114;2022-10-18T10:54:05;19.90;99.90
9125;DHT22;4597;48.730;9.114;2022-10-18T10:56:59;19.90;99.90
9125;DHT22;4597;48.730;9.114;2022-10-18T10:59:28;19.90;99.90
9125;DHT22;4597;48.730;9.114;2022-10-18T11:04:40;19.90;99.90
9125;DHT22;4597;48.730;9.114;2022-10-18T11:09:49;20.10;99.90
9125;DHT22;4597;48.730;9.114;2022-10-18T11:12:41;20.10;99.90
9125;DHT22;4597;48.730;9.114;2022-10-18T11:15:34;20.10;99.90
9125;DHT22;4597;48.730;9.114;2022-10-18T11:18:16;20.10;99.90
9125;DHT22;4597;48.730;9.114;2022-10-18T11:21:02;20.00;99.90
9125;DHT22;4597;48.730;9.114;2022-10-18T11:23:35;20.10;99.90
9125;DHT22;4597;48.730;9.114;2022-10-18T11:38:58;20.50;99.90
9125;DHT22;4597;48.730;9.114;2022-10-18T11:41:29;20.60;99.90
9125;DHT22;4597;48.730;9.114;2022-10-18T11:43:58;20.70;99.90
9125;DHT22;4597;48.730;9.114;2022-10-18T11:46:27;20.80;99.90
9125;DHT22;4597;48.730;9.114;2022-10-18T11:52:07;20.70;99.90
9125;DHT22;4597;48.730;9.114;2022-10-18T11:54:42;20.70;99.90
9125;DHT22;4597;48.730;9.114;2022-10-18T11:57:30;20.70;99.90
9125;DHT22;4597;48.730;9.114;2022-10-18T12:05:47;21.00;99.90
9125;DHT22;4597;48.730;9.114;2022-10-18T12:10:50;21.30;99.90
9125;DHT22;4597;48.730;9.114;2022-10-18T12:13:35;21.30;99.90
9125;DHT22;4597;48.730;9.114;2022-10-18T12:16:03;21.30;99.90
9125;DHT22;4597;48.730;9.114;2022-10-18T12:18:29;21.30;99.90
9125;DHT22;4597;48.730;9.114;2022-10-18T12:20:57;21.30;99.90
9125;DHT22;4597;48.730;9.114;2022-10-18T12:23:37;21.20;99.90
9125;DHT22;4597;48.730;9.114;2022-10-18T12:26:06;21.30;99.90
9125;DHT22;4597;48.730;9.114;2022-10-18T12:31:30;21.50;99.90
9125;DHT22;4597;48.730;9.114;2022-10-18T12:39:25;21.70;99.90
9125;DHT22;4597;48.730;9.114;2022-10-18T12:41:53;21.90;99.90
9125;DHT22;4597;48.730;9.114;2022-10-18T12:44:21;22.00;99.90
9125;DHT22;4597;48.730;9.114;2022-10-18T12:46:53;21.90;99.90
9125;DHT22;4597;48.730;9.114;2022-10-18T12:51:55;22.10;99.90
9125;DHT22;4597;48.730;9.114;2022-10-18T12:54:30;22.10;99.90
9125;DHT22;4597;48.730;9.114;2022-10-18T12:56:58;22.20;99.90
9125;DHT22;4597;48.730;9.114;2022-10-18T13:09:40;22.20;99.90
9125;DHT22;4597;48.730;9.114;2022-10-18T13:25:20;23.80;99.90
9125;DHT22;4597;48.730;9.114;2022-10-18T13:35:52;23.80;99.90
9125;DHT22;4597;48.730;9.114;2022-10-18T13:41:06;23.90;99.90
9125;DHT22;4597;48.730;9.114;2022-10-18T14:06:19;22.00;99.90
9125;DHT22;4597;48.730;9.114;2022-10-18T14:09:05;21.90;99.90
9125;DHT22;4597;48.730;9.114;2022-10-18T14:11:38;21.80;99.90
9125;DHT22;4597;48.730;9.114;2022-10-18T14:20:12;21.30;99.90
9125;DHT22;4597;48.730;9.114;2022-10-18T14:22:20;21.20;99.90
9125;DHT22;4597;48.730;9.114;2022-10-18T14:24:55;21.20;99.90
9125;DHT22;4597;48.730;9.114;2022-10-18T14:27:23;21.20;99.90
9125;DHT22;4597;48.730;9.114;2022-10-18T14:29:50;21.10;99.90
9125;DHT22;4597;48.730;9.114;2022-10-18T14:32:31;21.00;99.90
9125;DHT22;4597;48.730;9.114;2022-10-18T14:34:56;21.00;99.90
9125;DHT22;4597;48.730;9.114;2022-10-18T14:37:27;21.00;99.90
9125;DHT22;4597;48.730;9.114;2022-10-18T14:39:53;21.10;99.90
9125;DHT22;4597;48.730;9.114;2022-10-18T14:42:21;21.40;99.90
9125;DHT22;4597;48.730;9.114;2022-10-18T14:44:48;22.00;99.90
9125;DHT22;4597;48.730;9.114;2022-10-18T14:47:24;22.60;99.90
9125;DHT22;4597;48.730;9.114;2022-10-18T14:49:50;22.90;99.90
9125;DHT22;4597;48.730;9.114;2022-10-18T14:52:22;22.90;99.90
9125;DHT22;4597;48.730;9.114;2022-10-18T14:54:49;22.70;99.90
9125;DHT22;4597;48.730;9.114;2022-10-18T14:57:29;22.50;99.90
9125;DHT22;4597;48.730;9.114;2022-10-18T15:00:01;22.30;99.90
9125;DHT22;4597;48.730;9.114;2022-10-18T15:02:32;22.00;99.90
9125;DHT22;4597;48.730;9.114;2022-10-18T15:05:07;21.80;99.90
9125;DHT22;4597;48.730;9.114;2022-10-18T15:07:33;21.60;99.90
9125;DHT22;4597;48.730;9.114;2022-10-18T15:10:02;21.60;99.90
9125;DHT22;4597;48.730;9.114;2022-10-18T15:12:29;21.50;99.90
9125;DHT22;4597;48.730;9.114;2022-10-18T15:14:55;21.50;99.90
9125;DHT22;4597;48.730;9.114;2022-10-18T15:17:27;21.40;99.90
9125;DHT22;4597;48.730;9.114;2022-10-18T15:22:24;21.30;99.90
9125;DHT22;4597;48.730;9.114;2022-10-18T15:25:16;21.30;99.90
9125;DHT22;4597;48.730;9.114;2022-10-18T15:27:47;21.30;99.90
9125;DHT22;4597;48.730;9.114;2022-10-18T15:30:22;21.20;99.90
9125;DHT22;4597;48.730;9.114;2022-10-18T15:33:18;21.20;99.90
9125;DHT22;4597;48.730;9.114;2022-10-18T15:35:44;21.00;99.90
9125;DHT22;4597;48.730;9.114;2022-10-18T15:38:28;20.90;99.90
9125;DHT22;4597;48.730;9.114;2022-10-18T15:40:56;20.70;99.90
9125;DHT22;4597;48.730;9.114;2022-10-18T15:45:49;20.50;99.90
9125;DHT22;4597;48.730;9.114;2022-10-18T15:48:16;20.40;99.90
9125;DHT22;4597;48.730;9.114;2022-10-18T15:58:44;20.10;99.90
9125;DHT22;4597;48.730;9.114;2022-10-18T16:01:20;20.10;99.90
9125;DHT22;4597;48.730;9.114;2022-10-18T16:03:47;20.00;99.90
9125;DHT22;4597;48.730;9.114;2022-10-18T16:06:14;19.90;99.90
9125;DHT22;4597;48.730;9.114;2022-10-18T16:08:48;19.90;99.90
9125;DHT22;4597;48.730;9.114;2022-10-18T16:11:20;19.90;99.90
9125;DHT22;4597;48.730;9.114;2022-10-18T16:13:46;19.80;99.90
9125;DHT22;4597;48.730;9.114;2022-10-18T16:16:19;19.80;99.90
9125;DHT22;4597;48.730;9.114;2022-10-18T16:18:45;19.70;99.90
9125;DHT22;4597;48.730;9.114;2022-10-18T16:21:22;19.60;99.90
9125;DHT22;4597;48.730;9.114;2022-10-18T16:23:48;19.60;99.90
9125;DHT22;4597;48.730;9.114;2022-10-18T16:26:15;19.50;99.90
9125;DHT22;4597;48.730;9.114;2022-10-18T16:28:41;19.50;99.90
9125;DHT22;4597;48.730;9.114;2022-10-18T16:31:10;19.40;99.90
9125;DHT22;4597;48.730;9.114;2022-10-18T16:33:38;19.40;99.90
9125;DHT22;4597;48.730;9.114;2022-10-18T16:36:04;19.40;99.90
9125;DHT22;4597;48.730;9.114;2022-10-18T16:38:35;19.30;99.90
9125;DHT22;4597;48.730;9.114;2022-10-18T16:41:05;19.20;99.90
9125;DHT22;4597;48.730;9.114;2022-10-18T16:43:32;19.20;99.90
9125;DHT22;4597;48.730;9.114;2022-10-18T16:45:57;19.10;99.90
9125;DHT22;4597;48.730;9.114;2022-10-18T16:48:24;19.10;99.90
9125;DHT22;4597;48.730;9.114;2022-10-18T16:50:50;19.10;99.90
9125;DHT22;4597;48.730;9.114;2022-10-18T16:53:16;19.10;99.90
9125;DHT22;4597;48.730;9.114;2022-10-18T16:55:43;19.10;99.90
9125;DHT22;4597;48.730;9.114;2022-10-18T16:58:15;19.10;99.90
9125;DHT22;4597;48.730;9.114;2022-10-18T17:00:42;19.10;99.90
9125;DHT22;4597;48.730;9.114;2022-10-18T17:03:09;19.10;99.90
9125;DHT22;4597;48.730;9.114;2022-10-18T17:05:34;19.10;99.90
9125;DHT22;4597;48.730;9.114;2022-10-18T17:08:00;19.10;99.90
9125;DHT22;4597;48.730;9.114;2022-10-18T17:10:25;19.00;99.90
9125;DHT22;4597;48.730;9.114;2022-10-18T17:12:52;18.90;99.90
9125;DHT22;4597;48.730;9.114;2022-10-18T17:15:18;18.90;99.90
9125;DHT22;4597;48.730;9.114;2022-10-18T17:17:44;18.80;99.90
9125;DHT22;4597;48.730;9.114;2022-10-18T17:20:19;18.80;99.90
9125;DHT22;4597;48.730;9.114;2022-10-18T17:22:45;18.80;99.90
9125;DHT22;4597;48.730;9.114;2022-10-18T17:25:11;18.70;99.90
9125;DHT22;4597;48.730;9.114;2022-10-18T17:27:36;18.70;99.90
9125;DHT22;4597;48.730;9.114;2022-10-18T17:30:02;18.70;99.90
9125;DHT22;4597;48.730;9.114;2022-10-18T17:32:28;18.60;99.90
9125;DHT22;4597;48.730;9.114;2022-10-18T17:34:53;18.60;99.90
9125;DHT22;4597;48.730;9.114;2022-10-18T17:37:19;18.50;99.90
9125;DHT22;4597;48.730;9.114;2022-10-18T17:39:44;18.50;99.90
9125;DHT22;4597;48.730;9.114;2022-10-18T17:42:10;18.40;99.90
9125;DHT22;4597;48.730;9.114;2022-10-18T17:44:35;18.30;99.90
9125;DHT22;4597;48.730;9.114;2022-10-18T17:47:01;18.20;99.90
9125;DHT22;4597;48.730;9.114;2022-10-18T17:49:27;18.10;99.90
9125;DHT22;4597;48.730;9.114;2022-10-18T17:51:52;18.10;99.90
9125;DHT22;4597;48.730;9.114;2022-10-18T17:54:18;18.00;99.90
9125;DHT22;4597;48.730;9.114;2022-10-18T17:56:43;17.90;99.90
9125;DHT22;4597;48.730;9.114;2022-10-18T17:59:09;17.80;99.90
9125;DHT22;4597;48.730;9.114;2022-10-18T18:01:35;17.70;99.90
9125;DHT22;4597;48.730;9.114;2022-10-18T18:04:01;17.60;99.90
9125;DHT22;4597;48.730;9.114;2022-10-18T18:06:29;17.60;99.90
9125;DHT22;4597;48.730;9.114;2022-10-18T18:08:57;17.50;99.90
9125;DHT22;4597;48.730;9.114;2022-10-18T18:11:23;17.40;99.90
9125;DHT22;4597;48.730;9.114;2022-10-18T18:13:48;17.40;99.90
9125;DHT22;4597;48.730;9.114;2022-10-18T18:18:39;17.30;99.90
9125;DHT22;4597;48.730;9.114;2022-10-18T18:21:05;17.20;99.90
9125;DHT22;4597;48.730;9.114;2022-10-18T18:23:31;17.20;99.90
9125;DHT22;4597;48.730;9.114;2022-10-18T18:25:57;17.20;99.90
9125;DHT22;4597;48.730;9.114;2022-10-18T18:28:23;17.10;99.90
9125;DHT22;4597;48.730;9.114;2022-10-18T18:30:48;17.00;99.90
9125;DHT22;4597;48.730;9.114;2022-10-18T18:33:14;17.00;99.90
9125;DHT22;4597;48.730;9.114;2022-10-18T18:35:39;16.90;99.90
9125;DHT22;4597;48.730;9.114;2022-10-18T18:38:05;16.90;99.90
9125;DHT22;4597;48.730;9.114;2022-10-18T18:40:31;16.80;99.90
9125;DHT22;4597;48.730;9.114;2022-10-18T18:42:56;16.80;99.90
9125;DHT22;4597;48.730;9.114;2022-10-18T18:45:22;16.80;99.90
9125;DHT22;4597;48.730;9.114;2022-10-18T18:47:47;16.70;99.90
9125;DHT22;4597;48.730;9.114;2022-10-18T18:50:13;16.70;99.90
9125;DHT22;4597;48.730;9.114;2022-10-18T18:52:38;16.60;99.90
9125;DHT22;4597;48.730;9.114;2022-10-18T18:55:04;16.60;99.90
9125;DHT22;4597;48.730;9.114;2022-10-18T18:57:30;16.60;99.90